createdAt,value
2018-03-04T00:00:10.153Z,7.70
2018-03-04T00:01:11.179Z,7.70
2018-03-04T00:02:12.289Z,7.70
2018-03-04T00:03:13.329Z,7.70
2018-03-04T00:04:14.408Z,7.80
2018-03-04T00:05:15.486Z,7.80
2018-03-04T00:06:16.620Z,7.80
2018-03-04T00:07:17.679Z,7.80
2018-03-04T00:08:19.493Z,7.80
2018-03-04T00:09:20.573Z,7.80
2018-03-04T00:10:21.664Z,7.80
2018-03-04T00:11:22.736Z,7.80
2018-03-04T00:12:23.819Z,7.80
2018-03-04T00:13:24.883Z,7.80
2018-03-04T00:14:26.695Z,7.80
2018-03-04T00:15:27.761Z,7.80
2018-03-04T00:16:28.814Z,7.80
2018-03-04T00:17:29.876Z,7.80
2018-03-04T00:18:30.943Z,7.80
2018-03-04T00:19:32.012Z,7.80
2018-03-04T00:20:33.092Z,7.80
2018-03-04T00:21:34.167Z,7.80
2018-03-04T00:22:40.000Z,7.80
2018-03-04T00:23:41.069Z,7.80
2018-03-04T00:24:42.132Z,7.80
2018-03-04T00:25:43.199Z,7.80
2018-03-04T00:26:45.004Z,7.90
2018-03-04T00:27:46.075Z,7.90
2018-03-04T00:28:47.123Z,7.90
2018-03-04T00:29:48.177Z,7.90
2018-03-04T00:30:49.260Z,7.90
2018-03-04T00:31:50.305Z,7.90
2018-03-04T00:32:51.345Z,7.80
2018-03-04T00:33:53.152Z,7.80
2018-03-04T00:34:54.228Z,7.80
2018-03-04T00:35:56.053Z,7.80
2018-03-04T00:36:57.129Z,7.80
2018-03-04T00:37:58.199Z,7.90
2018-03-04T00:38:59.267Z,7.90
2018-03-04T00:40:00.476Z,7.80
2018-03-04T00:41:02.333Z,7.80
2018-03-04T00:42:04.171Z,7.80
2018-03-04T00:43:05.234Z,7.70
2018-03-04T00:44:07.032Z,7.70
2018-03-04T00:45:08.116Z,7.70
2018-03-04T00:46:09.932Z,7.70
2018-03-04T00:47:11.012Z,7.60
2018-03-04T00:48:12.075Z,7.70
2018-03-04T00:49:13.885Z,7.60
2018-03-04T00:50:15.719Z,7.60
2018-03-04T00:51:16.799Z,7.70
2018-03-04T00:52:17.855Z,7.70
2018-03-04T00:53:18.917Z,7.70
2018-03-04T00:54:20.719Z,7.70
2018-03-04T00:55:21.790Z,7.60
2018-03-04T00:56:22.865Z,7.60
2018-03-04T00:57:23.919Z,7.60
2018-03-04T00:58:25.536Z,7.60
2018-03-04T00:59:26.620Z,7.60
2018-03-04T01:00:27.688Z,7.60
2018-03-04T01:01:28.752Z,7.60
2018-03-04T01:02:29.806Z,7.60
2018-03-04T01:03:30.864Z,7.60
2018-03-04T01:04:31.939Z,7.60
2018-03-04T01:05:33.012Z,7.70
2018-03-04T01:06:34.117Z,7.70
2018-03-04T01:07:35.196Z,7.70
2018-03-04T01:08:37.016Z,7.70
2018-03-04T01:09:38.070Z,7.70
2018-03-04T01:10:39.903Z,7.70
2018-03-04T01:11:40.990Z,7.70
2018-03-04T01:12:42.062Z,7.80
2018-03-04T01:13:43.123Z,7.80
2018-03-04T01:14:44.189Z,7.80
2018-03-04T01:15:45.255Z,7.80
2018-03-04T01:16:46.341Z,7.80
2018-03-04T01:17:47.396Z,7.90
2018-03-04T01:18:48.480Z,7.90
2018-03-04T01:19:49.528Z,7.90
2018-03-04T01:20:50.611Z,7.80
2018-03-04T01:21:51.678Z,7.70
2018-03-04T01:22:53.483Z,7.80
2018-03-04T01:23:54.528Z,7.80
2018-03-04T01:24:55.623Z,7.80
2018-03-04T01:25:56.675Z,7.80
2018-03-04T01:26:57.751Z,7.80
2018-03-04T01:27:58.819Z,7.80
2018-03-04T01:28:59.904Z,7.80
2018-03-04T01:30:00.999Z,7.80
2018-03-04T01:31:02.038Z,7.80
2018-03-04T01:32:03.108Z,7.90
2018-03-04T01:33:04.170Z,7.90
2018-03-04T01:34:05.234Z,7.90
2018-03-04T01:35:07.039Z,7.90
2018-03-04T01:36:08.839Z,7.90
2018-03-04T01:37:09.940Z,7.90
2018-03-04T01:38:11.006Z,7.90
2018-03-04T01:39:12.076Z,7.90
2018-03-04T01:40:13.155Z,7.90
2018-03-04T01:41:14.224Z,7.90
2018-03-04T01:42:16.053Z,7.80
2018-03-04T01:43:17.124Z,7.80
2018-03-04T01:44:18.211Z,7.80
2018-03-04T01:45:19.267Z,7.70
2018-03-04T01:46:20.337Z,7.70
2018-03-04T01:47:21.449Z,7.70
2018-03-04T01:48:22.512Z,7.70
2018-03-04T01:49:23.592Z,7.70
2018-03-04T01:50:24.664Z,7.70
2018-03-04T01:51:37.959Z,7.70
2018-03-04T01:52:39.790Z,7.70
2018-03-04T01:53:41.596Z,7.70
2018-03-04T01:54:42.644Z,7.70
2018-03-04T01:55:43.710Z,7.70
2018-03-04T01:56:44.785Z,7.70
2018-03-04T01:57:45.849Z,7.80
2018-03-04T01:58:46.895Z,7.80
2018-03-04T01:59:47.948Z,7.80
2018-03-04T02:00:49.034Z,7.70
2018-03-04T02:01:50.094Z,7.70
2018-03-04T02:02:51.177Z,7.70
2018-03-04T02:03:52.247Z,7.60
2018-03-04T02:04:53.304Z,7.60
2018-03-04T02:05:55.135Z,7.60
2018-03-04T02:06:56.200Z,7.60
2018-03-04T02:07:58.028Z,7.60
2018-03-04T02:08:59.103Z,7.60
2018-03-04T02:10:00.153Z,7.60
2018-03-04T02:11:01.210Z,7.60
2018-03-04T02:12:02.268Z,7.50
2018-03-04T02:13:04.096Z,7.50
2018-03-04T02:14:05.156Z,7.50
2018-03-04T02:15:06.985Z,7.40
2018-03-04T02:16:08.052Z,7.40
2018-03-04T02:17:09.115Z,7.40
2018-03-04T02:18:10.185Z,7.40
2018-03-04T02:19:11.271Z,7.40
2018-03-04T02:20:12.355Z,7.50
2018-03-04T02:21:13.469Z,7.40
2018-03-04T02:22:14.553Z,7.40
2018-03-04T02:23:15.629Z,7.30
2018-03-04T02:24:16.710Z,7.30
2018-03-04T02:25:17.775Z,7.30
2018-03-04T02:26:18.847Z,7.30
2018-03-04T02:27:19.920Z,7.20
2018-03-04T02:28:20.999Z,7.10
2018-03-04T02:29:22.068Z,7.10
2018-03-04T02:30:23.865Z,7.00
2018-03-04T02:31:24.941Z,6.90
2018-03-04T02:32:26.005Z,6.90
2018-03-04T02:33:27.082Z,6.90
2018-03-04T02:34:28.149Z,6.80
2018-03-04T02:35:29.218Z,6.80
2018-03-04T02:36:30.317Z,6.80
2018-03-04T02:37:31.356Z,6.70
2018-03-04T02:38:32.425Z,6.60
2018-03-04T02:39:33.485Z,6.60
2018-03-04T02:40:35.287Z,6.50
2018-03-04T02:41:36.362Z,6.50
2018-03-04T02:42:37.437Z,6.50
2018-03-04T02:43:38.496Z,6.50
2018-03-04T02:44:39.575Z,6.50
2018-03-04T02:45:40.663Z,6.50
2018-03-04T02:46:41.749Z,6.50
2018-03-04T02:47:42.809Z,6.40
2018-03-04T02:48:43.885Z,6.40
2018-03-04T02:49:44.948Z,6.40
2018-03-04T02:50:46.009Z,6.40
2018-03-04T02:51:47.081Z,6.40
2018-03-04T02:52:48.140Z,6.20
2018-03-04T02:53:49.217Z,6.30
2018-03-04T02:54:50.276Z,6.30
2018-03-04T02:55:51.336Z,6.30
2018-03-04T02:56:53.154Z,6.40
2018-03-04T02:57:54.200Z,6.40
2018-03-04T02:58:56.013Z,6.50
2018-03-04T02:59:57.070Z,6.50
2018-03-04T03:00:58.144Z,6.50
2018-03-04T03:01:59.224Z,6.50
2018-03-04T03:03:00.317Z,6.50
2018-03-04T03:04:01.400Z,6.50
2018-03-04T03:05:02.456Z,6.50
2018-03-04T03:06:03.516Z,6.60
2018-03-04T03:07:04.601Z,6.60
2018-03-04T03:08:05.684Z,6.60
2018-03-04T03:09:06.764Z,6.60
2018-03-04T03:10:08.564Z,6.60
2018-03-04T03:11:09.644Z,6.60
2018-03-04T03:12:10.702Z,6.60
2018-03-04T03:13:11.769Z,6.70
2018-03-04T03:14:12.837Z,6.70
2018-03-04T03:15:13.953Z,6.70
2018-03-04T03:16:15.030Z,6.70
2018-03-04T03:17:16.100Z,6.70
2018-03-04T03:18:17.184Z,6.70
2018-03-04T03:19:18.262Z,6.70
2018-03-04T03:20:19.344Z,6.70
2018-03-04T03:21:20.409Z,6.70
2018-03-04T03:22:21.464Z,6.80
2018-03-04T03:23:22.528Z,6.80
2018-03-04T03:24:24.388Z,6.80
2018-03-04T03:25:25.472Z,6.80
2018-03-04T03:26:26.525Z,6.70
2018-03-04T03:27:27.583Z,6.70
2018-03-04T03:28:28.632Z,6.70
2018-03-04T03:29:29.692Z,6.70
2018-03-04T03:30:30.749Z,6.70
2018-03-04T03:31:31.816Z,6.70
2018-03-04T03:32:32.883Z,6.70
2018-03-04T03:33:34.687Z,6.80
2018-03-04T03:34:36.483Z,6.80
2018-03-04T03:35:37.536Z,6.80
2018-03-04T03:36:38.599Z,6.70
2018-03-04T03:37:39.654Z,6.80
2018-03-04T03:38:41.479Z,6.90
2018-03-04T03:39:42.536Z,6.90
2018-03-04T03:40:43.588Z,6.90
2018-03-04T03:41:44.647Z,7.00
2018-03-04T03:42:45.705Z,6.80
2018-03-04T03:43:46.766Z,7.00
2018-03-04T03:44:47.860Z,7.00
2018-03-04T03:45:49.329Z,7.00
2018-03-04T03:46:50.402Z,7.00
2018-03-04T03:47:51.475Z,7.00
2018-03-04T03:48:53.281Z,6.90
2018-03-04T03:49:54.334Z,6.90
2018-03-04T03:50:55.386Z,7.00
2018-03-04T03:51:56.436Z,7.00
2018-03-04T03:52:57.479Z,6.90
2018-03-04T03:53:58.550Z,6.90
2018-03-04T03:54:59.628Z,6.80
2018-03-04T03:56:00.727Z,6.80
2018-03-04T03:57:01.813Z,6.80
2018-03-04T03:58:02.891Z,6.80
2018-03-04T03:59:03.953Z,6.80
2018-03-04T04:00:05.021Z,6.80
2018-03-04T04:01:06.090Z,6.70
2018-03-04T04:02:07.140Z,6.70
2018-03-04T04:03:08.981Z,6.70
2018-03-04T04:04:10.028Z,6.70
2018-03-04T04:05:11.832Z,6.80
2018-03-04T04:06:12.891Z,6.70
2018-03-04T04:07:13.952Z,6.80
2018-03-04T04:08:15.020Z,6.70
2018-03-04T04:09:16.086Z,6.70
2018-03-04T04:10:17.153Z,6.70
2018-03-04T04:11:18.216Z,6.70
2018-03-04T04:12:19.301Z,6.70
2018-03-04T04:13:20.377Z,6.70
2018-03-04T04:14:21.438Z,6.60
2018-03-04T04:15:22.505Z,6.60
2018-03-04T04:16:23.570Z,6.60
2018-03-04T04:17:24.656Z,6.60
2018-03-04T04:18:26.454Z,6.70
2018-03-04T04:19:27.527Z,6.60
2018-03-04T04:20:29.337Z,6.70
2018-03-04T04:21:30.408Z,6.60
2018-03-04T04:22:31.473Z,6.70
2018-03-04T04:23:32.548Z,6.70
2018-03-04T04:24:33.587Z,6.60
2018-03-04T04:25:34.651Z,6.70
2018-03-04T04:26:35.715Z,6.70
2018-03-04T04:27:36.785Z,6.70
2018-03-04T04:28:37.864Z,6.60
2018-03-04T04:29:38.941Z,6.60
2018-03-04T04:30:40.013Z,6.60
2018-03-04T04:31:41.088Z,6.60
2018-03-04T04:32:42.144Z,6.60
2018-03-04T04:33:43.193Z,6.60
2018-03-04T04:34:44.985Z,6.60
2018-03-04T04:35:46.081Z,6.50
2018-03-04T04:36:47.888Z,6.50
2018-03-04T04:37:48.935Z,6.50
2018-03-04T04:38:49.995Z,6.50
2018-03-04T04:39:51.073Z,6.40
2018-03-04T04:40:52.127Z,6.40
2018-03-04T04:41:53.175Z,6.50
2018-03-04T04:42:54.236Z,6.50
2018-03-04T04:43:55.299Z,6.50
2018-03-04T04:44:56.373Z,6.40
2018-03-04T04:45:57.463Z,6.40
2018-03-04T04:46:58.516Z,6.40
2018-03-04T04:47:59.580Z,6.40
2018-03-04T04:49:01.389Z,6.40
2018-03-04T04:50:02.475Z,6.40
2018-03-04T04:51:03.532Z,6.40
2018-03-04T04:52:04.612Z,6.40
2018-03-04T04:53:05.676Z,6.40
2018-03-04T04:54:06.756Z,6.40
2018-03-04T04:55:07.808Z,6.40
2018-03-04T04:56:08.873Z,6.40
2018-03-04T04:57:09.928Z,6.40
2018-03-04T04:58:10.990Z,6.40
2018-03-04T04:59:12.796Z,6.40
2018-03-04T05:00:13.879Z,6.40
2018-03-04T05:01:15.700Z,6.40
2018-03-04T05:02:16.764Z,6.40
2018-03-04T05:03:17.815Z,6.50
2018-03-04T05:04:18.874Z,6.40
2018-03-04T05:05:20.896Z,6.40
2018-03-04T05:06:21.995Z,6.40
2018-03-04T05:07:23.070Z,6.30
2018-03-04T05:08:24.863Z,6.40
2018-03-04T05:09:25.921Z,6.30
2018-03-04T05:10:26.978Z,6.40
2018-03-04T05:11:28.065Z,6.40
2018-03-04T05:12:29.139Z,6.30
2018-03-04T05:13:30.197Z,6.30
2018-03-04T05:14:31.286Z,6.30
2018-03-04T05:15:32.351Z,6.30
2018-03-04T05:16:33.420Z,6.30
2018-03-04T05:17:34.514Z,6.30
2018-03-04T05:18:35.600Z,6.30
2018-03-04T05:19:36.656Z,6.30
2018-03-04T05:20:38.464Z,6.30
2018-03-04T05:21:39.528Z,6.30
2018-03-04T05:22:40.592Z,6.30
2018-03-04T05:23:41.663Z,6.30
2018-03-04T05:24:42.724Z,6.30
2018-03-04T05:25:43.796Z,6.30
2018-03-04T05:26:44.888Z,6.30
2018-03-04T05:27:45.960Z,6.20
2018-03-04T05:28:47.007Z,6.20
2018-03-04T05:29:48.067Z,6.20
2018-03-04T05:30:49.119Z,6.20
2018-03-04T05:31:50.206Z,6.20
2018-03-04T05:32:51.269Z,6.20
2018-03-04T05:33:52.316Z,6.20
2018-03-04T05:34:53.362Z,6.20
2018-03-04T05:35:54.432Z,6.20
2018-03-04T05:36:55.515Z,6.10
2018-03-04T05:37:56.580Z,6.20
2018-03-04T05:38:58.371Z,6.10
2018-03-04T05:39:59.417Z,6.10
2018-03-04T05:41:00.487Z,6.10
2018-03-04T05:42:01.568Z,6.20
2018-03-04T05:43:02.641Z,6.10
2018-03-04T05:44:03.700Z,6.10
2018-03-04T05:45:04.763Z,6.10
2018-03-04T05:46:05.816Z,6.10
2018-03-04T05:47:07.628Z,6.10
2018-03-04T05:48:08.700Z,6.10
2018-03-04T05:49:10.512Z,6.10
2018-03-04T05:50:11.572Z,6.10
2018-03-04T05:51:12.636Z,6.10
2018-03-04T05:52:13.763Z,6.10
2018-03-04T05:53:14.835Z,6.00
2018-03-04T05:54:15.900Z,6.00
2018-03-04T05:55:17.715Z,6.00
2018-03-04T05:56:18.762Z,6.00
2018-03-04T05:57:19.824Z,6.00
2018-03-04T05:58:21.628Z,6.00
2018-03-04T05:59:22.693Z,5.90
2018-03-04T06:00:23.771Z,6.00
2018-03-04T06:01:24.854Z,5.90
2018-03-04T06:02:25.918Z,5.90
2018-03-04T06:03:26.999Z,5.90
2018-03-04T06:04:28.264Z,5.90
2018-03-04T06:05:29.329Z,6.10
2018-03-04T06:06:31.936Z,5.90
2018-03-04T06:07:33.021Z,5.90
2018-03-04T06:08:34.088Z,5.90
2018-03-04T06:09:35.136Z,5.90
2018-03-04T06:10:36.200Z,5.90
2018-03-04T06:11:38.013Z,5.90
2018-03-04T06:12:39.079Z,5.80
2018-03-04T06:13:40.132Z,5.90
2018-03-04T06:14:41.198Z,5.90
2018-03-04T06:15:42.262Z,5.90
2018-03-04T06:16:43.335Z,5.80
2018-03-04T06:17:44.413Z,5.90
2018-03-04T06:18:45.464Z,5.90
2018-03-04T06:19:47.288Z,5.90
2018-03-04T06:20:48.388Z,5.80
2018-03-04T06:21:49.444Z,5.90
2018-03-04T06:22:50.508Z,5.90
2018-03-04T06:23:51.560Z,5.90
2018-03-04T06:24:53.373Z,5.90
2018-03-04T06:25:54.445Z,5.90
2018-03-04T06:26:55.517Z,5.90
2018-03-04T06:27:56.600Z,5.80
2018-03-04T06:28:58.405Z,5.90
2018-03-04T06:29:59.467Z,5.80
2018-03-04T06:31:01.283Z,5.80
2018-03-04T06:32:02.341Z,5.90
2018-03-04T06:33:03.440Z,5.90
2018-03-04T06:34:04.515Z,5.90
2018-03-04T06:35:05.572Z,5.90
2018-03-04T06:36:06.632Z,5.90
2018-03-04T06:37:07.712Z,5.90
2018-03-04T06:38:09.524Z,5.80
2018-03-04T06:39:10.595Z,5.80
2018-03-04T06:40:12.393Z,5.80
2018-03-04T06:41:13.480Z,5.80
2018-03-04T06:42:14.567Z,5.90
2018-03-04T06:43:15.723Z,5.90
2018-03-04T06:44:16.805Z,5.90
2018-03-04T06:45:17.885Z,5.90
2018-03-04T06:46:18.951Z,5.90
2018-03-04T06:47:20.032Z,5.90
2018-03-04T06:48:21.108Z,5.90
2018-03-04T06:49:23.005Z,5.90
2018-03-04T06:50:24.073Z,5.90
2018-03-04T06:51:25.133Z,5.90
2018-03-04T06:52:26.212Z,5.80
2018-03-04T06:53:27.293Z,5.90
2018-03-04T06:54:28.365Z,5.90
2018-03-04T06:55:29.452Z,5.90
2018-03-04T06:56:30.530Z,5.90
2018-03-04T06:57:31.612Z,5.90
2018-03-04T06:58:33.443Z,5.90
2018-03-04T06:59:34.533Z,5.90
2018-03-04T07:00:35.603Z,6.00
2018-03-04T07:01:37.440Z,6.00
2018-03-04T07:02:38.512Z,6.00
2018-03-04T07:03:40.344Z,6.00
2018-03-04T07:04:41.433Z,6.00
2018-03-04T07:05:42.516Z,6.10
2018-03-04T07:06:44.339Z,6.10
2018-03-04T07:07:45.433Z,6.10
2018-03-04T07:08:46.508Z,6.10
2018-03-04T07:09:47.580Z,6.00
2018-03-04T07:10:48.655Z,6.00
2018-03-04T07:11:49.728Z,6.00
2018-03-04T07:12:51.547Z,6.00
2018-03-04T07:13:52.649Z,6.00
2018-03-04T07:14:53.741Z,6.00
2018-03-04T07:15:54.808Z,6.00
2018-03-04T07:16:55.949Z,6.00
2018-03-04T07:17:57.006Z,6.00
2018-03-04T07:18:58.097Z,6.00
2018-03-04T07:19:59.182Z,6.00
2018-03-04T07:21:00.265Z,6.00
2018-03-04T07:22:01.333Z,6.00
2018-03-04T07:23:03.174Z,6.00
2018-03-04T07:24:04.301Z,6.00
2018-03-04T07:25:05.404Z,6.00
2018-03-04T07:26:06.544Z,6.00
2018-03-04T07:27:07.632Z,6.00
2018-03-04T07:28:08.709Z,6.10
2018-03-04T07:29:09.800Z,6.10
2018-03-04T07:30:10.880Z,6.10
2018-03-04T07:31:11.972Z,6.10
2018-03-04T07:32:13.061Z,6.10
2018-03-04T07:33:14.140Z,6.20
2018-03-04T07:34:15.963Z,6.20
2018-03-04T07:35:17.039Z,6.20
2018-03-04T07:36:18.114Z,6.20
2018-03-04T07:37:19.183Z,6.20
2018-03-04T07:38:21.008Z,6.20
2018-03-04T07:39:22.096Z,6.20
2018-03-04T07:40:23.189Z,6.30
2018-03-04T07:41:24.288Z,6.40
2018-03-04T07:42:25.354Z,6.40
2018-03-04T07:43:26.424Z,6.40
2018-03-04T07:44:27.499Z,6.40
2018-03-04T07:45:29.319Z,6.40
2018-03-04T07:46:30.405Z,6.40
2018-03-04T07:47:31.488Z,6.50
2018-03-04T07:48:32.575Z,6.50
2018-03-04T07:49:34.392Z,6.50
2018-03-04T07:50:35.468Z,6.50
2018-03-04T07:51:36.568Z,6.50
2018-03-04T07:52:37.648Z,6.60
2018-03-04T07:53:38.723Z,6.60
2018-03-04T07:54:39.795Z,6.60
2018-03-04T07:55:40.856Z,6.70
2018-03-04T07:56:41.945Z,6.70
2018-03-04T07:57:43.764Z,6.70
2018-03-04T07:58:44.848Z,6.70
2018-03-04T07:59:46.668Z,6.70
2018-03-04T08:00:47.744Z,6.70
2018-03-04T08:01:48.834Z,6.70
2018-03-04T08:02:49.912Z,6.70
2018-03-04T08:03:51.728Z,6.70
2018-03-04T08:04:53.576Z,6.70
2018-03-04T08:05:54.647Z,6.70
2018-03-04T08:06:55.737Z,6.70
2018-03-04T08:07:57.572Z,6.80
2018-03-04T08:13:57.704Z,6.90
2018-03-04T08:15:55.875Z,6.70
2018-03-04T08:16:56.975Z,6.70
2018-03-04T08:17:58.069Z,6.70
2018-03-04T08:18:59.889Z,6.70
2018-03-04T08:20:00.986Z,6.70
2018-03-04T08:21:02.085Z,6.70
2018-03-04T08:22:03.940Z,6.80
2018-03-04T08:23:05.036Z,6.80
2018-03-04T08:24:06.141Z,6.90
2018-03-04T08:25:19.699Z,6.90
2018-03-04T08:26:32.946Z,7.00
2018-03-04T08:27:46.208Z,7.00
2018-03-04T08:28:47.271Z,7.10
2018-03-04T08:29:48.365Z,7.20
2018-03-04T08:30:49.473Z,7.20
2018-03-04T08:31:50.585Z,7.20
2018-03-04T08:32:52.421Z,7.30
2018-03-04T08:33:53.491Z,7.30
2018-03-04T08:34:54.556Z,7.30
2018-03-04T08:35:55.652Z,7.30
2018-03-04T08:36:56.747Z,7.30
2018-03-04T08:37:57.840Z,7.40
2018-03-04T08:38:58.937Z,7.40
2018-03-04T08:40:00.035Z,7.40
2018-03-04T08:41:01.136Z,7.50
2018-03-04T08:42:03.076Z,7.50
2018-03-04T08:43:04.177Z,7.60
2018-03-04T08:44:05.272Z,7.60
2018-03-04T08:45:06.370Z,7.50
2018-03-04T08:46:07.472Z,7.70
2018-03-04T08:47:08.556Z,7.70
2018-03-04T08:48:09.641Z,7.70
2018-03-04T08:49:11.492Z,7.80
2018-03-04T08:50:13.316Z,7.80
2018-03-04T08:51:14.395Z,7.80
2018-03-04T08:52:15.488Z,7.80
2018-03-04T08:53:16.596Z,7.80
2018-03-04T08:54:17.717Z,7.80
2018-03-04T08:55:18.801Z,7.90
2018-03-04T08:56:20.720Z,7.90
2018-03-04T08:57:21.808Z,7.90
2018-03-04T08:58:22.904Z,7.90
2018-03-04T08:59:23.995Z,7.90
2018-03-04T09:00:25.081Z,8.00
2018-03-04T09:01:26.941Z,8.10
2018-03-04T09:02:28.023Z,8.10
2018-03-04T09:03:29.893Z,8.20
2018-03-04T09:04:30.977Z,8.00
2018-03-04T09:05:32.088Z,8.30
2018-03-04T09:06:33.260Z,8.30
2018-03-04T09:07:34.345Z,8.30
2018-03-04T09:08:35.472Z,8.30
2018-03-04T09:09:36.557Z,8.40
2018-03-04T09:10:37.620Z,8.40
2018-03-04T09:11:40.987Z,8.40
2018-03-04T09:12:42.051Z,8.40
2018-03-04T09:13:43.139Z,8.50
2018-03-04T09:14:44.257Z,8.60
2018-03-04T09:15:45.334Z,8.60
2018-03-04T09:16:46.433Z,8.60
2018-03-04T09:17:47.495Z,8.60
2018-03-04T09:18:48.563Z,8.60
2018-03-04T09:19:50.459Z,8.70
2018-03-04T09:20:51.520Z,8.70
2018-03-04T09:21:52.915Z,8.80
2018-03-04T09:22:54.842Z,8.80
2018-03-04T09:23:56.705Z,8.90
2018-03-04T09:24:57.830Z,8.80
2018-03-04T09:25:58.961Z,8.90
2018-03-04T09:27:01.079Z,9.00
2018-03-04T09:28:02.323Z,8.90
2018-03-04T09:29:03.700Z,8.90
2018-03-04T09:30:04.827Z,9.00
2018-03-04T09:31:07.803Z,9.00
2018-03-04T09:32:12.230Z,9.00
2018-03-04T09:33:13.610Z,9.10
2018-03-04T09:34:15.482Z,9.20
2018-03-04T09:35:16.783Z,9.20
2018-03-04T09:36:18.149Z,9.20
2018-03-04T09:37:20.235Z,9.30
2018-03-04T09:38:21.667Z,9.20
2018-03-04T09:39:22.769Z,9.30
2018-03-04T09:40:26.354Z,9.30
2018-03-04T09:41:28.036Z,9.40
2018-03-04T09:42:29.188Z,9.40
2018-03-04T09:43:30.908Z,9.40
2018-03-04T09:44:32.612Z,9.20
2018-03-04T09:45:36.774Z,9.50
2018-03-04T09:46:40.280Z,9.50
2018-03-04T09:47:42.474Z,9.50
2018-03-04T09:48:44.312Z,9.60
2018-03-04T09:49:46.075Z,9.60
2018-03-04T09:50:47.498Z,9.80
2018-03-04T09:51:53.824Z,9.70
2018-03-04T09:52:55.402Z,9.70
2018-03-04T09:53:57.160Z,9.80
2018-03-04T09:54:59.572Z,9.80
2018-03-04T09:56:01.247Z,9.80
2018-03-04T09:57:04.520Z,9.90
2018-03-04T09:58:06.803Z,9.90
2018-03-04T09:59:08.304Z,9.90
2018-03-04T10:00:09.617Z,9.90
2018-03-04T10:01:10.951Z,9.90
2018-03-04T10:02:12.622Z,9.90
2018-03-04T10:03:13.844Z,9.90
2018-03-04T10:04:14.976Z,9.90
2018-03-04T10:05:16.509Z,9.90
2018-03-04T10:06:18.263Z,9.90
2018-03-04T10:07:19.831Z,10.00
2018-03-04T10:08:21.059Z,10.00
2018-03-04T10:09:22.172Z,10.10
2018-03-04T10:10:23.262Z,10.10
2018-03-04T10:11:25.101Z,10.10
2018-03-04T10:12:26.474Z,10.10
2018-03-04T10:13:27.854Z,10.20
2018-03-04T10:14:29.261Z,10.20
2018-03-04T10:15:32.315Z,10.30
2018-03-04T10:16:33.915Z,10.30
2018-03-04T10:17:35.036Z,10.30
2018-03-04T10:18:36.646Z,10.40
2018-03-04T10:19:38.384Z,10.40
2018-03-04T10:20:39.897Z,10.50
2018-03-04T10:21:49.455Z,10.50
2018-03-04T10:22:51.352Z,10.60
2018-03-04T10:24:00.483Z,10.60
2018-03-04T10:25:01.632Z,10.70
2018-03-04T10:26:02.724Z,10.80
2018-03-04T10:27:03.827Z,10.60
2018-03-04T10:28:05.088Z,10.80
2018-03-04T10:29:06.211Z,10.80
2018-03-04T10:30:07.292Z,10.80
2018-03-04T10:31:09.104Z,10.90
2018-03-04T10:32:10.317Z,10.90
2018-03-04T10:33:11.534Z,10.90
2018-03-04T10:34:12.644Z,11.00
2018-03-04T10:35:13.721Z,10.90
2018-03-04T10:36:14.848Z,11.00
2018-03-04T10:37:15.944Z,11.00
2018-03-04T10:38:17.813Z,11.10
2018-03-04T10:39:18.924Z,11.10
2018-03-04T10:40:20.065Z,11.20
2018-03-04T10:41:22.005Z,11.20
2018-03-04T10:42:23.852Z,11.30
2018-03-04T10:43:25.725Z,11.30
2018-03-04T10:44:26.854Z,11.30
2018-03-04T10:45:28.322Z,11.40
2018-03-04T10:46:29.594Z,11.50
2018-03-04T10:47:30.713Z,11.50
2018-03-04T10:48:31.800Z,11.50
2018-03-04T10:49:32.879Z,11.60
2018-03-04T10:50:33.960Z,11.60
2018-03-04T10:51:35.809Z,11.80
2018-03-04T10:52:36.943Z,11.70
2018-03-04T10:53:38.072Z,11.80
2018-03-04T10:54:39.176Z,11.80
2018-03-04T10:55:40.767Z,11.90
2018-03-04T10:56:42.664Z,12.00
2018-03-04T10:57:43.772Z,11.90
2018-03-04T10:58:44.902Z,12.00
2018-03-04T10:59:46.752Z,12.00
2018-03-04T11:00:53.958Z,12.00
2018-03-04T11:02:02.220Z,12.10
2018-03-04T11:03:03.304Z,12.10
2018-03-04T11:04:04.427Z,12.20
2018-03-04T11:05:05.556Z,12.20
2018-03-04T11:06:06.676Z,12.20
2018-03-04T11:07:07.793Z,12.10
2018-03-04T11:08:08.869Z,12.30
2018-03-04T11:09:11.116Z,12.30
2018-03-04T11:10:12.224Z,12.30
2018-03-04T11:11:15.018Z,12.30
2018-03-04T11:12:16.350Z,12.20
2018-03-04T11:13:17.436Z,12.40
2018-03-04T11:14:19.279Z,12.50
2018-03-04T11:15:24.210Z,12.40
2018-03-04T11:16:25.331Z,12.50
2018-03-04T11:17:27.166Z,12.50
2018-03-04T11:18:28.312Z,12.50
2018-03-04T11:19:29.427Z,12.50
2018-03-04T11:20:30.554Z,12.70
2018-03-04T11:21:31.654Z,12.60
2018-03-04T11:22:32.748Z,12.60
2018-03-04T11:23:34.657Z,12.70
2018-03-04T11:24:35.768Z,12.70
2018-03-04T11:25:36.888Z,12.80
2018-03-04T11:26:37.981Z,12.80
2018-03-04T11:27:39.076Z,12.90
2018-03-04T11:28:40.236Z,13.00
2018-03-04T11:29:41.336Z,13.00
2018-03-04T11:30:42.456Z,13.10
2018-03-04T11:31:43.549Z,13.00
2018-03-04T11:32:45.390Z,13.10
2018-03-04T11:33:46.498Z,13.10
2018-03-04T11:34:48.720Z,13.20
2018-03-04T11:35:49.958Z,13.20
2018-03-04T11:36:51.126Z,13.30
2018-03-04T11:37:52.409Z,13.30
2018-03-04T11:38:53.517Z,13.30
2018-03-04T11:39:54.628Z,13.40
2018-03-04T11:40:55.733Z,13.40
2018-03-04T11:41:56.929Z,13.40
2018-03-04T11:42:58.030Z,13.40
2018-03-04T11:43:59.139Z,13.40
2018-03-04T11:45:00.429Z,13.50
2018-03-04T11:46:02.267Z,13.50
2018-03-04T11:47:03.387Z,13.50
2018-03-04T11:48:04.488Z,13.50
2018-03-04T11:49:05.575Z,13.60
2018-03-04T11:50:07.420Z,13.70
2018-03-04T11:51:08.567Z,13.60
2018-03-04T11:52:09.644Z,13.70
2018-03-04T11:53:14.861Z,13.70
2018-03-04T11:54:15.951Z,13.80
2018-03-04T11:55:18.076Z,13.80
2018-03-04T11:56:19.219Z,13.80
2018-03-04T11:57:20.317Z,13.80
2018-03-04T11:58:21.423Z,13.80
2018-03-04T11:59:22.537Z,13.80
2018-03-04T12:00:23.654Z,13.90
2018-03-04T12:01:24.760Z,13.90
2018-03-04T12:02:25.872Z,13.90
2018-03-04T12:03:28.324Z,13.90
2018-03-04T12:04:29.425Z,13.80
2018-03-04T12:05:30.612Z,14.00
2018-03-04T12:06:31.823Z,14.00
2018-03-04T12:07:33.660Z,14.10
2018-03-04T12:08:34.826Z,14.20
2018-03-04T12:09:35.990Z,14.10
2018-03-04T12:10:37.773Z,14.20
2018-03-04T12:11:38.877Z,14.10
2018-03-04T12:12:39.992Z,14.20
2018-03-04T12:13:41.148Z,14.20
2018-03-04T12:14:42.404Z,14.30
2018-03-04T12:15:43.489Z,14.30
2018-03-04T12:16:44.608Z,14.30
2018-03-04T12:17:45.688Z,14.30
2018-03-04T12:18:46.781Z,14.40
2018-03-04T12:19:47.937Z,14.40
2018-03-04T12:20:49.363Z,14.50
2018-03-04T12:21:53.121Z,14.50
2018-03-04T12:22:55.087Z,14.50
2018-03-04T12:23:56.238Z,14.30
2018-03-04T12:24:58.121Z,14.50
2018-03-04T12:25:59.254Z,14.50
2018-03-04T12:27:00.572Z,14.50
2018-03-04T12:28:01.869Z,14.60
2018-03-04T12:29:03.753Z,14.60
2018-03-04T12:30:05.088Z,14.60
2018-03-04T12:31:08.588Z,14.60
2018-03-04T12:32:10.750Z,14.60
2018-03-04T12:33:12.216Z,14.60
2018-03-04T12:34:13.375Z,14.60
2018-03-04T12:35:14.476Z,14.50
2018-03-04T12:36:15.632Z,14.50
2018-03-04T12:37:16.756Z,14.50
2018-03-04T12:38:17.877Z,14.50
2018-03-04T12:39:18.976Z,14.50
2018-03-04T12:40:20.804Z,14.60
2018-03-04T12:41:21.941Z,14.60
2018-03-04T12:42:23.048Z,14.70
2018-03-04T12:43:24.137Z,14.70
2018-03-04T12:44:25.216Z,14.80
2018-03-04T12:45:26.314Z,14.80
2018-03-04T12:46:27.440Z,14.90
2018-03-04T12:47:32.865Z,14.90
2018-03-04T12:48:33.953Z,14.90
2018-03-04T12:49:35.072Z,15.00
2018-03-04T12:50:36.866Z,15.10
2018-03-04T12:51:37.964Z,15.20
2018-03-04T12:52:39.078Z,15.20
2018-03-04T12:53:40.196Z,15.20
2018-03-04T12:54:41.469Z,15.20
2018-03-04T12:55:43.399Z,15.30
2018-03-04T12:56:45.280Z,15.30
2018-03-04T12:57:46.392Z,15.40
2018-03-04T12:58:47.532Z,15.50
2018-03-04T12:59:48.615Z,15.50
2018-03-04T13:00:49.807Z,15.60
2018-03-04T13:01:51.652Z,15.70
2018-03-04T13:02:52.804Z,15.60
2018-03-04T13:03:53.908Z,15.70
2018-03-04T13:04:55.027Z,15.70
2018-03-04T13:05:56.100Z,15.80
2018-03-04T13:06:57.969Z,15.80
2018-03-04T13:07:59.098Z,15.90
2018-03-04T13:09:00.193Z,15.90
2018-03-04T13:10:01.283Z,15.90
2018-03-04T13:11:02.486Z,15.90
2018-03-04T13:12:04.259Z,15.90
2018-03-04T13:13:05.361Z,15.90
2018-03-04T13:14:07.895Z,15.90
2018-03-04T13:15:09.003Z,15.90
2018-03-04T13:16:10.135Z,15.80
2018-03-04T13:17:11.228Z,15.90
2018-03-04T13:18:13.005Z,15.90
2018-03-04T13:19:14.152Z,15.80
2018-03-04T13:20:15.285Z,15.90
2018-03-04T13:21:16.415Z,15.90
2018-03-04T13:22:19.708Z,15.90
2018-03-04T13:23:20.917Z,16.00
2018-03-04T13:24:22.053Z,16.00
2018-03-04T13:25:23.200Z,16.00
2018-03-04T13:26:25.261Z,16.00
2018-03-04T13:27:26.368Z,16.00
2018-03-04T13:28:27.487Z,16.10
2018-03-04T13:29:30.487Z,16.10
2018-03-04T13:30:31.623Z,16.10
2018-03-04T13:31:33.976Z,16.10
2018-03-04T13:32:35.120Z,16.20
2018-03-04T13:33:36.352Z,16.10
2018-03-04T13:34:37.532Z,16.00
2018-03-04T13:35:38.689Z,16.20